Time;durP1;ratioP1;P1;durP2;ratioP2;P2;SDS_P1;SDS_P2;PMS_P1;PMS_P2;Temp;Humidity;BMP_temperature;BMP_pressure;BME280_temperature;BME280_humidity;BME280_pressure;Samples;Min_cycle;Max_cycle;Signal;HPM_P1;HPM_P2
2022/12/18 00:01:31;;;;;;;0.40;0.40;;;;;;;-6.62;100.00;102823.44;5048594;28;20024;-74
2022/12/18 00:03:56;;;;;;;0.40;0.40;;;;;;;-6.67;100.00;102831.13;5060946;28;20032;-74
2022/12/18 00:06:22;;;;;;;0.50;0.50;;;;;;;-6.82;100.00;102802.00;5059583;28;20033;-74
2022/12/18 00:08:48;;;;;;;0.40;0.40;;;;;;;-6.68;100.00;102826.75;5054616;28;20838;-74
2022/12/18 00:11:19;;;;;;;0.40;0.40;;;;;;;-6.69;100.00;102824.09;5058571;28;20024;-74
2022/12/18 00:13:45;;;;;;;0.40;0.40;;;;;;;-6.86;100.00;102795.78;5066500;28;20845;-74
2022/12/18 00:16:12;;;;;;;0.40;0.40;;;;;;;-6.85;100.00;102799.31;5052557;28;20043;-74
2022/12/18 00:18:38;;;;;;;0.40;0.40;;;;;;;-7.14;100.00;102749.81;5061958;28;20123;-74
2022/12/18 00:21:06;;;;;;;0.40;0.40;;;;;;;-6.79;100.00;102823.84;5060063;28;20136;-74
2022/12/18 00:23:32;;;;;;;0.50;0.50;;;;;;;-7.20;100.00;102775.75;5048851;28;20765;-74
2022/12/18 00:26:02;;;;;;;0.40;0.40;;;;;;;-7.10;100.00;102798.66;5047477;28;20126;-74
2022/12/18 00:28:28;;;;;;;0.40;0.40;;;;;;;-7.44;100.00;102777.72;5054121;28;20024;-74
2022/12/18 00:31:07;;;;;;;0.40;0.40;;;;;;;-7.44;100.00;102802.94;5063764;28;20025;-74
2022/12/18 00:33:33;;;;;;;0.40;0.40;;;;;;;-7.56;100.00;102816.50;5064127;28;20023;-74
2022/12/18 00:36:06;;;;;;;0.50;0.50;;;;;;;-7.54;100.00;102799.16;5054403;28;20036;-74
2022/12/18 00:38:32;;;;;;;0.50;0.50;;;;;;;-7.59;100.00;102790.31;5073695;28;20457;-74
2022/12/18 00:40:57;;;;;;;0.50;0.50;;;;;;;-7.72;100.00;102763.00;5065812;28;20054;-74
2022/12/18 00:43:23;;;;;;;0.50;0.50;;;;;;;-7.64;100.00;102781.47;5068094;28;20066;-73
2022/12/18 00:45:48;;;;;;;0.40;0.40;;;;;;;-7.54;100.00;102800.03;5053969;28;20032;-74
2022/12/18 00:48:13;;;;;;;0.50;0.50;;;;;;;-7.68;100.00;102760.50;5059571;28;21023;-73
2022/12/18 00:50:38;;;;;;;0.45;0.45;;;;;;;-7.55;100.00;102774.78;5073351;28;20602;-73
2022/12/18 00:53:04;;;;;;;0.50;0.50;;;;;;;-7.50;100.00;102767.13;5071353;28;20442;-73
2022/12/18 00:55:29;;;;;;;0.50;0.50;;;;;;;-7.43;100.00;102770.78;5065339;28;20032;-73
2022/12/18 00:57:54;;;;;;;0.40;0.40;;;;;;;-7.22;100.00;102791.38;5065190;28;20028;-73
2022/12/18 01:00:20;;;;;;;0.40;0.40;;;;;;;-7.23;100.00;102793.09;5069269;28;20427;-73
2022/12/18 01:02:45;;;;;;;0.40;0.40;;;;;;;-7.41;100.00;102780.41;5064549;28;20131;-73
2022/12/18 01:05:12;;;;;;;0.40;0.40;;;;;;;-7.42;100.00;102775.16;5068378;28;20035;-74
2022/12/18 01:07:39;;;;;;;0.40;0.40;;;;;;;-7.23;100.00;102806.13;5053081;28;20378;-73
2022/12/18 01:10:06;;;;;;;0.40;0.40;;;;;;;-7.24;100.00;102808.72;5049082;28;20032;-74
2022/12/18 01:12:32;;;;;;;0.40;0.40;;;;;;;-7.23;100.00;102802.66;5068506;28;20032;-74
2022/12/18 01:14:58;;;;;;;0.50;0.50;;;;;;;-7.17;100.00;102804.53;5059540;28;20028;-73
2022/12/18 01:17:23;;;;;;;0.40;0.40;;;;;;;-7.26;100.00;102802.56;5064658;28;20030;-73
2022/12/18 01:19:48;;;;;;;0.47;0.47;;;;;;;-7.36;100.00;102787.47;5063093;28;20039;-73
2022/12/18 01:22:16;;;;;;;0.40;0.40;;;;;;;-7.42;100.00;102816.91;5071825;28;20517;-73
2022/12/18 01:24:41;;;;;;;0.40;0.40;;;;;;;-7.49;100.00;102817.56;5071767;28;20028;-73
2022/12/18 01:27:07;;;;;;;0.40;0.40;;;;;;;-7.51;100.00;102808.81;5065810;28;20776;-74
2022/12/18 01:29:32;;;;;;;0.40;0.40;;;;;;;-7.78;100.00;102805.44;5071990;28;20020;-73
2022/12/18 01:31:57;;;;;;;0.40;0.40;;;;;;;-7.82;100.00;102785.31;5070695;28;20028;-74
2022/12/18 01:34:23;;;;;;;0.40;0.40;;;;;;;-7.65;100.00;102797.97;5065756;28;20024;-74
2022/12/18 01:36:48;;;;;;;0.50;0.50;;;;;;;-7.76;100.00;102800.25;5064404;28;20061;-73
2022/12/18 01:39:15;;;;;;;0.40;0.40;;;;;;;-7.77;100.00;102804.59;5073153;28;20469;-74
2022/12/18 01:45:01;;;;;;;0.40;0.40;;;;;;;-7.72;100.00;102802.13;5073929;28;20124;-73
2022/12/18 01:47:39;;;;;;;0.40;0.40;;;;;;;-7.70;100.00;102797.84;5069874;28;20115;-73
2022/12/18 01:50:13;;;;;;;0.40;0.40;;;;;;;-7.75;100.00;102796.81;5060851;28;20704;-73
2022/12/18 01:52:41;;;;;;;0.40;0.40;;;;;;;-7.81;100.00;102797.53;5076496;28;20028;-73
2022/12/18 01:55:08;;;;;;;0.40;0.40;;;;;;;-7.91;100.00;102783.31;5068667;28;20712;-73
2022/12/18 01:57:33;;;;;;;0.40;0.40;;;;;;;-7.80;100.00;102798.38;5070064;28;20038;-73
2022/12/18 02:00:03;;;;;;;0.50;0.50;;;;;;;-7.75;100.00;102810.75;5064534;28;20028;-73
2022/12/18 02:02:29;;;;;;;0.40;0.40;;;;;;;-7.79;100.00;102797.56;5067876;28;20028;-73
2022/12/18 02:04:54;;;;;;;0.40;0.40;;;;;;;-7.81;100.00;102792.31;5069058;28;20190;-73
2022/12/18 02:07:28;;;;;;;0.40;0.40;;;;;;;-7.72;100.00;102787.38;5064590;28;20046;-73
2022/12/18 02:10:22;;;;;;;0.50;0.50;;;;;;;-7.82;100.00;102763.59;5058374;28;20062;-73
2022/12/18 02:12:58;;;;;;;0.50;0.50;;;;;;;-7.63;100.00;102791.06;5063738;28;20044;-73
2022/12/18 02:15:34;;;;;;;0.50;0.50;;;;;;;-7.62;100.00;102798.06;5066464;28;20280;-74
2022/12/18 02:18:06;;;;;;;0.40;0.40;;;;;;;-7.62;100.00;102800.66;5066609;28;20033;-74
2022/12/18 02:20:36;;;;;;;0.40;0.40;;;;;;;-7.72;100.00;102802.13;5052730;28;20486;-74
2022/12/18 02:23:18;;;;;;;0.40;0.40;;;;;;;-7.80;100.00;102794.06;5070496;28;20032;-75
2022/12/18 02:26:11;;;;;;;0.32;0.32;;;;;;;-7.85;100.00;102798.25;5067209;28;20062;-74
2022/12/18 02:28:42;;;;;;;0.40;0.40;;;;;;;-7.83;100.00;102801.81;5070331;28;20039;-74
2022/12/18 02:31:11;;;;;;;0.40;0.40;;;;;;;-7.97;100.00;102764.88;5086084;27;20065;-74
2022/12/18 02:33:37;;;;;;;0.40;0.40;;;;;;;-7.95;100.00;102768.41;5065719;28;20028;-75
2022/12/18 02:36:03;;;;;;;0.40;0.40;;;;;;;-7.73;100.00;102795.13;5054584;28;20562;-74
2022/12/18 02:38:29;;;;;;;0.40;0.40;;;;;;;-7.71;100.00;102790.84;5076102;28;20117;-74
2022/12/18 02:40:55;;;;;;;0.40;0.40;;;;;;;-7.78;100.00;102796.72;5082516;28;20131;-74
2022/12/18 02:43:20;;;;;;;0.40;0.40;;;;;;;-7.93;100.00;102777.16;5073334;28;20043;-74
2022/12/18 02:45:48;;;;;;;0.40;0.40;;;;;;;-7.88;100.00;102795.56;5072896;28;21407;-74
2022/12/18 02:48:14;;;;;;;0.40;0.40;;;;;;;-7.90;100.00;102782.47;5072659;28;20040;-74
2022/12/18 02:50:45;;;;;;;0.35;0.35;;;;;;;-7.84;100.00;102787.88;5061461;28;20056;-74
2022/12/18 02:53:18;;;;;;;0.30;0.30;;;;;;;-7.85;100.00;102787.81;5076922;28;20131;-74
2022/12/18 02:56:01;;;;;;;0.40;0.40;;;;;;;-7.75;100.00;102782.06;5069998;28;20028;-74
2022/12/18 02:58:45;;;;;;;0.40;0.40;;;;;;;-7.82;100.00;102781.84;5068154;28;20052;-74
2022/12/18 03:01:37;;;;;;;0.40;0.40;;;;;;;-7.82;100.00;102774.88;5081036;28;20036;-74
2022/12/18 03:04:08;;;;;;;0.40;0.40;;;;;;;-7.85;100.00;102766.97;5071468;28;20055;-74
2022/12/18 03:06:40;;;;;;;0.40;0.40;;;;;;;-7.83;100.00;102778.31;5070392;28;20020;-74
2022/12/18 03:09:11;;;;;;;0.40;0.40;;;;;;;-7.94;100.00;102751.94;5068191;28;20035;-74
2022/12/18 03:14:25;;;;;;;0.40;0.40;;;;;;;-7.85;100.00;102757.44;5067901;28;21393;-74
2022/12/18 03:16:53;;;;;;;0.40;0.40;;;;;;;-7.91;100.00;102744.22;5071494;28;20056;-74
2022/12/18 03:19:22;;;;;;;0.30;0.30;;;;;;;-7.81;100.00;102775.78;5067347;28;20131;-74
2022/12/18 03:21:54;;;;;;;0.35;0.35;;;;;;;-7.95;100.00;102751.91;5070587;28;20028;-74
2022/12/18 03:24:20;;;;;;;0.40;0.40;;;;;;;-7.92;100.00;102750.25;5075748;28;20036;-74
2022/12/18 03:26:47;;;;;;;0.40;0.40;;;;;;;-7.86;100.00;102771.31;5072678;28;20055;-74
2022/12/18 03:29:20;;;;;;;0.40;0.40;;;;;;;-8.00;100.00;102746.53;5066785;28;20032;-74
2022/12/18 03:31:52;;;;;;;0.40;0.40;;;;;;;-8.10;100.00;102744.50;5069413;28;20028;-74
2022/12/18 03:34:23;;;;;;;0.40;0.40;;;;;;;-8.07;100.00;102768.94;5074243;28;20020;-74
2022/12/18 03:36:48;;;;;;;0.50;0.50;;;;;;;-8.34;100.00;102722.06;5073604;28;20039;-74
2022/12/18 03:39:13;;;;;;;0.40;0.40;;;;;;;-8.13;100.00;102763.53;5058328;28;20047;-74
2022/12/18 03:41:59;;;;;;;0.40;0.40;;;;;;;-8.24;100.00;102764.94;5063826;28;20154;-74
2022/12/18 03:44:31;;;;;;;0.40;0.40;;;;;;;-8.40;100.00;102761.81;5077238;28;20039;-74
2022/12/18 03:47:13;;;;;;;0.40;0.40;;;;;;;-8.57;100.00;102755.22;5061925;28;20032;-74
2022/12/18 03:49:48;;;;;;;0.40;0.40;;;;;;;-8.74;100.00;102735.63;5067532;28;20040;-74
2022/12/18 03:52:26;;;;;;;;;;;;;;;-8.65;100.00;102741.97;5052216;28;20032;-73
2022/12/18 03:54:52;;;;;;;0.50;0.50;;;;;;;-8.51;100.00;102734.59;5073034;28;19920;-74
2022/12/18 03:57:23;;;;;;;0.50;0.50;;;;;;;-8.38;100.00;102726.28;5070601;28;20505;-74
2022/12/18 03:59:54;;;;;;;0.45;0.45;;;;;;;-8.23;100.00;102725.88;5071375;28;20166;-74
2022/12/18 04:02:20;;;;;;;0.40;0.40;;;;;;;-8.23;100.00;102722.41;5079547;28;20119;-74
2022/12/18 04:04:47;;;;;;;0.50;0.50;;;;;;;-8.22;100.00;102732.84;5074072;28;20028;-75
2022/12/18 04:07:13;;;;;;;0.40;0.40;;;;;;;-8.28;100.00;102724.84;5078969;28;20052;-74
2022/12/18 04:09:38;;;;;;;0.40;0.40;;;;;;;-8.27;100.00;102734.44;5074548;28;20541;-73
2022/12/18 04:12:04;;;;;;;0.40;0.40;;;;;;;-8.24;100.00;102725.84;5071880;28;20554;-74
2022/12/18 04:14:29;;;;;;;0.40;0.40;;;;;;;-8.15;100.00;102720.88;5071818;28;20039;-73
2022/12/18 04:16:54;;;;;;;0.40;0.40;;;;;;;-8.24;100.00;102713.66;5069229;28;20040;-73
2022/12/18 04:19:20;;;;;;;0.40;0.40;;;;;;;-8.15;100.00;102711.34;5075472;28;20043;-74
2022/12/18 04:21:45;;;;;;;0.50;0.50;;;;;;;-8.29;100.00;102708.34;5064830;28;20036;-74
2022/12/18 04:24:10;;;;;;;0.40;0.40;;;;;;;-8.41;100.00;102718.38;5074576;28;20048;-74
2022/12/18 04:26:36;;;;;;;0.40;0.40;;;;;;;-8.49;100.00;102689.50;5076908;28;20111;-74
2022/12/18 04:29:02;;;;;;;0.40;0.40;;;;;;;-8.39;100.00;102705.41;5079414;28;20032;-74
2022/12/18 04:31:27;;;;;;;0.40;0.40;;;;;;;-8.27;100.00;102707.50;5073237;28;20071;-73
2022/12/18 04:33:52;;;;;;;0.40;0.40;;;;;;;-8.26;100.00;102704.06;5072166;28;20077;-73
2022/12/18 04:36:17;;;;;;;0.40;0.40;;;;;;;-8.24;100.00;102697.16;5073715;28;20056;-73
2022/12/18 04:38:43;;;;;;;0.40;0.40;;;;;;;-8.22;100.00;102698.97;5072625;28;20028;-74
2022/12/18 04:41:08;;;;;;;0.40;0.40;;;;;;;-8.40;100.00;102674.97;5064050;28;20037;-74
2022/12/18 04:43:34;;;;;;;0.50;0.50;;;;;;;-8.37;100.00;102680.28;5070099;28;20375;-73
2022/12/18 04:46:06;;;;;;;0.40;0.40;;;;;;;-8.25;100.00;102698.00;5069223;28;20358;-74
2022/12/18 04:48:32;;;;;;;0.50;0.50;;;;;;;-8.17;100.00;102705.22;5064100;28;20028;-74
2022/12/18 04:50:57;;;;;;;0.40;0.40;;;;;;;-8.24;100.00;102710.19;5069165;28;20470;-74
2022/12/18 04:53:22;;;;;;;0.40;0.40;;;;;;;-8.39;100.00;102692.38;5067635;28;20478;-74
2022/12/18 04:55:48;;;;;;;0.45;0.45;;;;;;;-8.11;100.00;102724.47;5063927;28;20160;-74
2022/12/18 04:58:13;;;;;;;0.40;0.40;;;;;;;-8.17;100.00;102720.84;5064095;28;20626;-74
2022/12/18 05:00:39;;;;;;;0.40;0.40;;;;;;;-8.38;100.00;102708.03;5069403;28;20111;-74
2022/12/18 05:03:04;;;;;;;0.40;0.40;;;;;;;-8.45;100.00;102695.66;5060935;28;20085;-73
2022/12/18 05:05:29;;;;;;;0.40;0.40;;;;;;;-8.25;100.00;102731.88;5066697;28;20040;-73
2022/12/18 05:07:55;;;;;;;0.43;0.43;;;;;;;-8.27;100.00;102715.31;5062899;28;20031;-74
2022/12/18 05:10:20;;;;;;;0.40;0.40;;;;;;;-8.38;100.00;102715.84;5062582;28;20037;-74
2022/12/18 05:12:57;;;;;;;0.40;0.40;;;;;;;-8.19;100.00;102748.59;5061323;28;20059;-74
2022/12/18 05:15:24;;;;;;;0.40;0.40;;;;;;;-8.07;100.00;102760.22;5066034;28;20118;-74
2022/12/18 05:17:49;;;;;;;0.40;0.40;;;;;;;-8.10;100.00;102752.31;5062173;28;20035;-74
2022/12/18 05:20:15;;;;;;;0.40;0.40;;;;;;;-8.14;100.00;102765.25;5065686;28;20036;-74
2022/12/18 05:22:40;;;;;;;0.40;0.40;;;;;;;-8.37;100.00;102735.88;5074462;28;20032;-74
2022/12/18 05:25:05;;;;;;;0.40;0.40;;;;;;;-8.23;100.00;102764.97;5069017;28;20032;-74
2022/12/18 05:27:31;;;;;;;0.40;0.40;;;;;;;-8.44;100.00;102742.63;5059990;28;20537;-74
2022/12/18 05:29:56;;;;;;;0.43;0.43;;;;;;;-8.25;100.00;102760.56;5066751;28;20028;-74
2022/12/18 05:32:21;;;;;;;0.40;0.40;;;;;;;-8.29;100.00;102755.25;5061134;28;20032;-74
2022/12/18 05:34:46;;;;;;;0.40;0.40;;;;;;;-8.23;100.00;102757.16;5053675;28;20130;-74
2022/12/18 05:37:12;;;;;;;0.40;0.40;;;;;;;-8.20;100.00;102752.03;5061089;28;20588;-74
2022/12/18 05:39:37;;;;;;;0.40;0.40;;;;;;;-8.34;100.00;102729.88;5062177;28;20082;-74
2022/12/18 05:42:03;;;;;;;0.40;0.40;;;;;;;-8.35;100.00;102723.78;5049115;28;20046;-73
2022/12/18 05:44:28;;;;;;;0.40;0.40;;;;;;;-8.41;100.00;102726.19;5052239;28;20036;-74
2022/12/18 05:46:53;;;;;;;0.40;0.40;;;;;;;-8.21;100.00;102752.00;5062569;28;20070;-74
2022/12/18 05:49:19;;;;;;;0.40;0.40;;;;;;;-8.34;100.00;102714.25;5060591;28;20123;-74
2022/12/18 05:51:44;;;;;;;0.40;0.40;;;;;;;-8.14;100.00;102743.50;5067518;28;20055;-74
2022/12/18 05:54:09;;;;;;;0.40;0.40;;;;;;;-8.10;100.00;102745.38;5064814;28;20123;-74
2022/12/18 05:56:35;;;;;;;0.40;0.40;;;;;;;-8.10;100.00;102736.69;5062554;28;20036;-74
2022/12/18 05:59:00;;;;;;;0.40;0.40;;;;;;;-8.09;100.00;102710.66;5061434;28;20067;-74
2022/12/18 06:01:26;;;;;;;0.40;0.40;;;;;;;-8.10;100.00;102705.41;5062515;28;20423;-74
2022/12/18 06:03:51;;;;;;;0.40;0.40;;;;;;;-8.01;100.00;102695.22;5055922;28;20032;-74
2022/12/18 06:06:19;;;;;;;0.40;0.40;;;;;;;-8.19;100.00;102677.31;5047012;28;20035;-72
2022/12/18 06:08:45;;;;;;;0.40;0.40;;;;;;;-8.18;100.00;102694.72;5059590;28;20105;-74
2022/12/18 06:11:10;;;;;;;0.40;0.40;;;;;;;-8.20;100.00;102712.03;5060404;28;20719;-74
2022/12/18 06:13:36;;;;;;;0.40;0.40;;;;;;;-8.52;100.00;102699.81;5057281;28;20028;-74
2022/12/18 06:16:04;;;;;;;0.40;0.40;;;;;;;-8.61;100.00;102679.59;5054190;28;20036;-74
2022/12/18 06:18:29;;;;;;;0.40;0.40;;;;;;;-8.61;100.00;102665.69;5066311;28;20096;-74
2022/12/18 06:20:58;;;;;;;0.40;0.40;;;;;;;-8.44;100.00;102677.47;5061582;28;20041;-74
2022/12/18 06:23:24;;;;;;;0.40;0.40;;;;;;;-8.25;100.00;102698.88;5067381;28;20481;-74
2022/12/18 06:25:51;;;;;;;0.40;0.40;;;;;;;-8.16;100.00;102699.16;5054298;28;20044;-74
2022/12/18 06:28:16;;;;;;;0.40;0.40;;;;;;;-8.05;100.00;102691.66;5068541;28;20034;-74
2022/12/18 06:30:46;;;;;;;0.40;0.40;;;;;;;-7.89;100.00;102700.81;5065489;28;20032;-74
2022/12/18 06:33:11;;;;;;;0.40;0.40;;;;;;;-7.85;100.00;102702.66;5060537;28;20036;-74
2022/12/18 06:35:37;;;;;;;0.40;0.40;;;;;;;-7.88;100.00;102686.94;5068685;28;20032;-74
2022/12/18 06:38:02;;;;;;;0.40;0.40;;;;;;;-7.83;100.00;102694.88;5048946;28;20047;-74
2022/12/18 06:40:28;;;;;;;0.40;0.40;;;;;;;-7.72;100.00;102698.69;5066917;28;20116;-74
2022/12/18 06:42:54;;;;;;;0.40;0.40;;;;;;;-7.87;100.00;102682.59;5048099;28;20171;-74
2022/12/18 06:45:19;;;;;;;0.40;0.40;;;;;;;-7.81;100.00;102687.97;5068081;28;20036;-74
2022/12/18 06:47:44;;;;;;;0.40;0.40;;;;;;;-7.87;100.00;102690.41;5067040;28;20093;-74
2022/12/18 06:50:10;;;;;;;0.35;0.35;;;;;;;-7.97;100.00;102686.66;5065046;28;20406;-74
2022/12/18 06:52:36;;;;;;;0.30;0.30;;;;;;;-8.16;100.00;102665.28;5072294;28;20716;-74
2022/12/18 06:55:02;;;;;;;0.40;0.40;;;;;;;-8.05;100.00;102686.44;5060106;28;20065;-74
2022/12/18 06:57:27;;;;;;;0.40;0.40;;;;;;;-7.96;100.00;102684.94;5054292;28;20560;-74
2022/12/18 06:59:52;;;;;;;0.40;0.40;;;;;;;-7.90;100.00;102686.00;5066724;28;20035;-75
2022/12/18 07:02:18;;;;;;;0.40;0.40;;;;;;;-7.91;100.00;102692.06;5061740;28;20428;-74
2022/12/18 07:04:43;;;;;;;0.40;0.40;;;;;;;-7.97;100.00;102681.44;5066948;28;20162;-74
2022/12/18 07:07:08;;;;;;;0.40;0.40;;;;;;;-7.94;100.00;102665.00;5067732;28;20036;-74
2022/12/18 07:09:34;;;;;;;0.30;0.30;;;;;;;-7.91;100.00;102646.81;5053820;28;20050;-74
2022/12/18 07:11:59;;;;;;;0.32;0.32;;;;;;;-7.85;100.00;102673.09;5066680;28;20073;-74
2022/12/18 07:14:24;;;;;;;0.40;0.40;;;;;;;-7.88;100.00;102671.28;5070507;28;20056;-74
2022/12/18 07:16:50;;;;;;;0.40;0.40;;;;;;;-7.93;100.00;102667.66;5062942;28;20028;-75
2022/12/18 07:19:15;;;;;;;0.40;0.40;;;;;;;-7.89;100.00;102663.41;5063914;28;20043;-74
2022/12/18 07:21:40;;;;;;;0.50;0.50;;;;;;;-7.91;100.00;102658.16;5066423;28;20046;-74
2022/12/18 07:24:06;;;;;;;0.40;0.40;;;;;;;-7.89;100.00;102652.97;5077875;28;20044;-74
2022/12/18 07:26:31;;;;;;;0.50;0.50;;;;;;;-7.69;100.00;102675.28;5070247;28;20035;-74
2022/12/18 07:28:57;;;;;;;0.40;0.40;;;;;;;-7.64;100.00;102661.47;5067355;28;20038;-74
2022/12/18 07:31:23;;;;;;;0.40;0.40;;;;;;;-7.64;100.00;102658.84;5074216;28;20575;-75
2022/12/18 07:33:50;;;;;;;0.40;0.40;;;;;;;-7.65;100.00;102651.88;5071118;28;20031;-74
2022/12/18 07:36:15;;;;;;;0.35;0.35;;;;;;;-7.80;100.00;102649.72;5076156;28;20039;-74
2022/12/18 07:38:41;;;;;;;0.32;0.32;;;;;;;-7.99;100.00;102628.38;5076062;28;20040;-73
2022/12/18 07:41:12;;;;;;;0.40;0.40;;;;;;;-7.81;100.00;102653.22;5072186;28;20143;-74
2022/12/18 07:43:37;;;;;;;0.40;0.40;;;;;;;-8.30;100.00;102572.75;5075174;28;20035;-73
2022/12/18 07:46:03;;;;;;;0.30;0.30;;;;;;;-7.74;100.00;102642.97;5075881;28;20032;-74
2022/12/18 07:48:29;;;;;;;0.40;0.40;;;;;;;-7.65;100.00;102639.72;5076189;28;20067;-74
2022/12/18 07:50:58;;;;;;;0.40;0.40;;;;;;;-7.55;100.00;102636.50;5065078;28;20106;-74
2022/12/18 07:53:23;;;;;;;0.40;0.40;;;;;;;-7.71;100.00;102588.28;5077338;28;20028;-74
2022/12/18 07:55:49;;;;;;;0.40;0.40;;;;;;;-7.45;100.00;102605.44;5069412;28;20036;-73
2022/12/18 07:58:14;;;;;;;0.40;0.40;;;;;;;-7.29;100.00;102617.16;5073319;28;20879;-73
2022/12/18 08:00:39;;;;;;;0.40;0.40;;;;;;;-7.01;100.00;102625.66;5065129;28;20530;-73
2022/12/18 08:03:05;;;;;;;0.40;0.40;;;;;;;-6.90;100.00;102610.25;5059897;28;20039;-73
2022/12/18 08:05:30;;;;;;;0.40;0.40;;;;;;;-6.65;100.00;102599.50;5065344;28;20062;-73
2022/12/18 08:07:56;;;;;;;0.40;0.40;;;;;;;-6.28;100.00;102595.91;5075561;28;20035;-73
2022/12/18 08:10:22;;;;;;;0.40;0.40;;;;;;;-6.01;100.00;102599.94;5070827;28;20054;-73
2022/12/18 08:12:50;;;;;;;0.40;0.40;;;;;;;-6.05;100.00;102585.88;5070128;28;20493;-73
2022/12/18 08:15:16;;;;;;;0.35;0.35;;;;;;;-5.81;100.00;102595.03;5060872;28;20933;-74
2022/12/18 08:17:41;;;;;;;0.38;0.38;;;;;;;-5.67;100.00;102601.41;5053461;28;20077;-73
2022/12/18 08:20:07;;;;;;;0.30;0.30;;;;;;;-5.52;100.00;102586.81;5055332;28;20040;-73
2022/12/18 08:22:39;;;;;;;0.40;0.40;;;;;;;-5.38;100.00;102601.03;5068876;28;20044;-74
2022/12/18 08:25:05;;;;;;;0.30;0.30;;;;;;;-5.24;100.00;102587.28;5071529;28;20089;-73
2022/12/18 08:27:30;;;;;;;0.35;0.35;;;;;;;-5.06;100.00;102571.88;5070354;28;20747;-73
2022/12/18 08:29:56;;;;;;;0.30;0.30;;;;;;;-4.96;100.00;102599.09;5070737;28;20035;-73
2022/12/18 08:32:22;;;;;;;0.30;0.30;;;;;;;-4.76;100.00;102588.00;5068560;28;20127;-74
2022/12/18 08:34:47;;;;;;;0.30;0.30;;;;;;;-4.59;100.00;102604.84;5071441;28;20532;-73
2022/12/18 08:37:12;;;;;;;0.35;0.35;;;;;;;-4.55;100.00;102600.53;5071684;28;20028;-73
2022/12/18 08:39:38;;;;;;;0.30;0.30;;;;;;;-4.73;100.00;102601.16;5069951;28;20036;-73
2022/12/18 08:44:47;;;;;;;0.30;0.30;;;;;;;-4.37;100.00;102603.41;5068521;28;20035;-73
2022/12/18 08:47:12;;;;;;;0.30;0.30;;;;;;;-4.76;100.00;102573.16;5073808;28;20043;-73
2022/12/18 08:49:37;;;;;;;0.30;0.30;;;;;;;-4.10;100.00;102614.19;5066292;28;20032;-73
2022/12/18 08:52:03;;;;;;;0.30;0.30;;;;;;;-4.29;100.00;102610.50;5073780;28;20025;-73
2022/12/18 08:54:28;;;;;;;0.40;0.40;;;;;;;-4.39;100.00;102601.63;5067473;28;20024;-73
2022/12/18 08:56:54;;;;;;;0.30;0.30;;;;;;;-4.40;100.00;102579.75;5065828;28;20035;-73
2022/12/18 08:59:19;;;;;;;0.35;0.35;;;;;;;-4.39;100.00;102555.28;5070273;28;20577;-73
2022/12/18 09:01:46;;;;;;;0.40;0.40;;;;;;;-4.30;100.00;102578.13;5067007;28;20052;-74
2022/12/18 09:04:11;;;;;;;0.30;0.30;;;;;;;-4.07;100.00;102594.13;5066447;28;20036;-73
2022/12/18 09:06:37;;;;;;;0.30;0.30;;;;;;;-4.07;100.00;102565.28;5071464;28;20093;-73
2022/12/18 09:09:03;;;;;;;0.30;0.30;;;;;;;-3.90;100.00;102603.06;5069059;28;20032;-73
2022/12/18 09:11:29;;;;;;;0.30;0.30;;;;;;;-3.74;100.00;102593.63;5067771;28;20035;-73
2022/12/18 09:13:55;;;;;;;0.38;0.38;;;;;;;-3.90;100.00;102550.59;5068401;28;20494;-73
2022/12/18 09:16:21;;;;;;;0.30;0.30;;;;;;;-3.79;100.00;102580.41;5061848;28;20115;-73
2022/12/18 09:18:47;;;;;;;0.30;0.30;;;;;;;-3.51;100.00;102573.69;5046785;28;20470;-72
2022/12/18 09:21:20;;;;;;;0.30;0.30;;;;;;;-3.69;100.00;102584.91;5067459;28;20119;-73
2022/12/18 09:23:53;;;;;;;0.30;0.30;;;;;;;-3.58;100.00;102590.25;5070859;28;20036;-72
2022/12/18 09:26:19;;;;;;;0.30;0.30;;;;;;;-3.67;100.00;102604.19;5068274;28;20509;-73
2022/12/18 09:28:45;;;;;;;0.30;0.30;;;;;;;-3.51;100.00;102613.09;5066737;28;20067;-73
2022/12/18 09:31:14;;;;;;;0.30;0.30;;;;;;;-3.46;100.00;102605.25;5064751;28;20334;-73
2022/12/18 09:33:40;;;;;;;0.30;0.30;;;;;;;-3.59;100.00;102564.88;5070419;28;20032;-74
2022/12/18 09:36:07;;;;;;;0.30;0.30;;;;;;;-3.25;100.00;102590.53;5062914;28;20051;-73
2022/12/18 09:38:33;;;;;;;0.30;0.30;;;;;;;-3.09;100.00;102596.78;5061993;28;20036;-73
2022/12/18 09:41:03;;;;;;;0.30;0.30;;;;;;;-3.06;100.00;102587.19;5053513;28;20114;-74
2022/12/18 09:43:35;;;;;;;0.30;0.30;;;;;;;-3.08;100.00;102586.31;5047717;28;20113;-73
2022/12/18 09:46:04;;;;;;;0.30;0.30;;;;;;;-3.01;100.00;102568.81;5070728;28;20448;-73
2022/12/18 09:48:39;;;;;;;0.22;0.22;;;;;;;-2.90;100.00;102567.13;5068896;28;20067;-73
2022/12/18 09:51:15;;;;;;;;;;;;;;;-2.87;100.00;102576.81;5069580;28;20077;-73
2022/12/18 09:53:42;;;;;;;0.30;0.30;;;;;;;-2.95;100.00;102581.13;5062426;28;19920;-73
2022/12/18 09:56:12;;;;;;;0.30;0.30;;;;;;;-2.88;100.00;102575.91;5067444;28;20035;-72
2022/12/18 09:58:44;;;;;;;0.30;0.30;;;;;;;-2.88;100.00;102570.66;5086717;28;20068;-73
2022/12/18 10:01:16;;;;;;;0.30;0.30;;;;;;;-2.76;100.00;102561.09;5056627;28;20043;-73
2022/12/18 10:03:41;;;;;;;0.30;0.30;;;;;;;-2.51;100.00;102556.81;5060768;28;20588;-73
2022/12/18 10:06:12;;;;;;;0.30;0.30;;;;;;;-2.46;100.00;102549.81;5069141;28;20035;-73
2022/12/18 10:08:46;;;;;;;0.30;0.30;;;;;;;-2.67;100.00;102542.75;5068245;28;20114;-73
2022/12/18 10:11:27;;;;;;;0.30;0.30;;;;;;;-2.64;100.00;102541.88;5068094;28;20100;-72
2022/12/18 10:13:57;;;;;;;0.30;0.30;;;;;;;-2.51;100.00;102527.00;5070507;28;20023;-73
2022/12/18 10:16:41;;;;;;;0.30;0.30;;;;;;;-2.21;100.00;102528.00;5064993;28;20033;-73
2022/12/18 10:19:09;;;;;;;0.30;0.30;;;;;;;-2.03;100.00;102548.22;5071583;28;20020;-73
2022/12/18 10:21:56;;;;;;;0.30;0.30;;;;;;;-2.19;100.00;102550.78;5065466;28;20406;-72
2022/12/18 10:24:40;;;;;;;0.30;0.30;;;;;;;-2.15;100.00;102525.38;5073319;28;20023;-73
2022/12/18 10:27:14;;;;;;;;;;;;;;;-2.23;100.00;102545.53;5065818;28;20517;-73
2022/12/18 10:29:39;;;;;;;0.30;0.30;;;;;;;-2.27;100.00;102511.31;5067373;28;19922;-73
2022/12/18 10:32:04;;;;;;;0.30;0.30;;;;;;;-2.21;100.00;102552.53;5064111;28;20028;-73
2022/12/18 10:34:30;;;;;;;0.20;0.20;;;;;;;-2.12;100.00;102549.94;5068476;28;20028;-73
2022/12/18 10:36:55;;;;;;;0.30;0.30;;;;;;;-2.15;100.00;102542.03;5065245;28;20559;-73
2022/12/18 10:39:22;;;;;;;0.30;0.30;;;;;;;-2.03;100.00;102533.28;5056790;28;20027;-73
2022/12/18 10:41:51;;;;;;;0.30;0.30;;;;;;;-2.12;100.00;102531.53;5064690;28;20042;-73
2022/12/18 10:44:21;;;;;;;0.30;0.30;;;;;;;-2.37;100.00;102530.56;5065156;28;20039;-73
2022/12/18 10:46:49;;;;;;;0.30;0.30;;;;;;;-2.08;100.00;102521.88;5069306;28;20497;-73
2022/12/18 10:49:21;;;;;;;0.20;0.20;;;;;;;-2.10;100.00;102513.09;5064864;28;20039;-73
2022/12/18 10:51:46;;;;;;;0.30;0.30;;;;;;;-1.98;100.00;102499.06;5079938;28;20032;-72
2022/12/18 10:54:18;;;;;;;0.30;0.30;;;;;;;-2.18;100.00;102486.75;5070939;28;20040;-74
2022/12/18 10:56:44;;;;;;;0.30;0.30;;;;;;;-2.18;100.00;102478.88;5067518;28;20050;-73
2022/12/18 10:59:11;;;;;;;0.20;0.20;;;;;;;-1.87;100.00;102496.47;5047120;28;20032;-73
2022/12/18 11:01:52;;;;;;;0.30;0.30;;;;;;;-1.94;100.00;102484.19;5051720;28;20382;-73
2022/12/18 11:04:23;;;;;;;0.30;0.30;;;;;;;-1.67;100.00;102464.84;5068548;28;20139;-73
2022/12/18 11:06:56;;;;;;;0.30;0.30;;;;;;;-1.96;100.00;102466.63;5068544;28;20036;-73
2022/12/18 11:09:24;;;;;;;0.30;0.30;;;;;;;-1.94;100.00;102461.34;5068636;28;20055;-73
2022/12/18 11:11:53;;;;;;;0.30;0.30;;;;;;;-2.07;100.00;102443.81;5054899;28;20024;-73
2022/12/18 11:14:23;;;;;;;0.30;0.30;;;;;;;-1.89;100.00;102469.28;5066877;28;20116;-73
2022/12/18 11:16:49;;;;;;;0.30;0.30;;;;;;;-2.23;100.00;102462.19;5067992;28;20032;-73
2022/12/18 11:19:24;;;;;;;0.22;0.22;;;;;;;-1.96;100.00;102458.72;5052702;28;22037;-73
2022/12/18 11:21:49;;;;;;;0.30;0.30;;;;;;;-1.62;100.00;102464.88;5068754;28;20287;-73
2022/12/18 11:24:26;;;;;;;0.20;0.20;;;;;;;-1.78;100.00;102453.47;5061741;28;20123;-73
2022/12/18 11:26:51;;;;;;;0.30;0.30;;;;;;;-1.93;100.00;102451.72;5053403;28;20038;-73
2022/12/18 11:29:20;;;;;;;0.30;0.30;;;;;;;-1.78;100.00;102461.38;5050789;28;20029;-73